Time;durP1;ratioP1;P1;durP2;ratioP2;P2;SDS_P1;SDS_P2;PMS_P1;PMS_P2;Temp;Humidity;BMP_temperature;BMP_pressure;BME280_temperature;BME280_humidity;BME280_pressure;Samples;Min_cycle;Max_cycle;Signal;HPM_P1;HPM_P2
2021/01/22 00:01:21;;;;;;;99.82;59.53;;;;;;;1.33;72.36;95097.53;4135223;28;20057;-81
2021/01/22 00:03:23;;;;;;;102.57;59.22;;;;;;;1.31;72.48;95089.91;4134929;28;20072;-80
2021/01/22 00:05:24;;;;;;;102.13;57.90;;;;;;;1.13;73.41;95070.38;4135734;28;20089;-82
2021/01/22 00:07:25;;;;;;;100.38;57.45;;;;;;;1.21;72.85;95096.53;4137245;28;20357;-81
2021/01/22 00:09:26;;;;;;;98.88;56.60;;;;;;;1.32;72.90;95090.75;4138687;28;20110;-80
2021/01/22 00:11:28;;;;;;;92.55;53.20;;;;;;;1.45;72.21;95081.31;4136846;28;20133;-79
2021/01/22 00:13:29;;;;;;;93.05;52.70;;;;;;;1.54;71.30;95085.91;4137056;28;20046;-81
2021/01/22 00:15:30;;;;;;;89.40;51.30;;;;;;;1.64;71.43;95081.00;4127765;28;20400;-82
2021/01/22 00:17:32;;;;;;;95.05;53.05;;;;;;;1.67;71.20;95083.38;4127422;28;20054;-82
2021/01/22 00:19:33;;;;;;;110.10;57.63;;;;;;;1.72;70.90;95071.03;4136095;28;20149;-83
2021/01/22 00:21:37;;;;;;;97.65;54.45;;;;;;;1.64;71.11;95068.09;4136276;28;20116;-79
2021/01/22 00:23:38;;;;;;;108.82;59.00;;;;;;;1.36;72.10;95069.81;4131275;28;20042;-70
2021/01/22 00:25:40;;;;;;;99.57;53.80;;;;;;;1.42;71.75;95069.44;4129310;28;20129;-70
2021/01/22 00:27:41;;;;;;;88.03;51.33;;;;;;;1.50;71.93;95071.53;4130207;28;20089;-72
2021/01/22 00:29:42;;;;;;;93.63;53.05;;;;;;;1.10;73.38;95055.06;4130244;28;20058;-71
2021/01/22 00:31:43;;;;;;;99.30;55.97;;;;;;;0.96;73.83;95079.13;4128237;28;20420;-70
2021/01/22 00:33:45;;;;;;;102.88;54.70;;;;;;;1.05;73.56;95093.22;4120919;28;20078;-70
2021/01/22 00:35:46;;;;;;;101.05;54.50;;;;;;;1.14;73.10;95084.91;4124183;28;20089;-71
2021/01/22 00:37:48;;;;;;;94.38;54.63;;;;;;;1.23;72.95;95087.78;4130251;28;20039;-71
2021/01/22 00:39:49;;;;;;;99.35;53.58;;;;;;;1.32;72.81;95093.31;4127451;28;20057;-70
2021/01/22 00:41:50;;;;;;;101.70;55.22;;;;;;;1.38;72.01;95090.38;4130569;28;20128;-70
2021/01/22 00:43:51;;;;;;;90.57;52.53;;;;;;;1.36;72.26;95087.88;4128100;28;20513;-71
2021/01/22 00:45:52;;;;;;;99.97;56.78;;;;;;;1.39;72.14;95073.94;4126282;28;20134;-71
2021/01/22 00:47:54;;;;;;;94.22;54.50;;;;;;;1.46;71.88;95080.38;4127215;28;20047;-70
2021/01/22 00:49:55;;;;;;;103.35;55.60;;;;;;;1.52;71.84;95086.94;4117593;28;20059;-70
2021/01/22 00:51:56;;;;;;;91.22;52.70;;;;;;;1.55;71.52;95074.66;4128234;28;20113;-81
2021/01/22 00:53:58;;;;;;;88.70;52.25;;;;;;;1.50;71.29;95078.44;4121294;28;20066;-80
2021/01/22 00:55:59;;;;;;;91.32;51.03;;;;;;;1.28;72.10;95084.09;4133947;28;20426;-80
2021/01/22 00:58:00;;;;;;;96.70;53.15;;;;;;;1.30;72.50;95074.50;4133462;28;20488;-81
2021/01/22 01:00:04;;;;;;;81.03;51.10;;;;;;;1.33;72.14;95059.66;4132206;28;20113;-81
2021/01/22 01:02:06;;;;;;;91.57;52.00;;;;;;;1.35;72.15;95086.19;4134090;28;20081;-82
2021/01/22 01:04:08;;;;;;;87.00;50.72;;;;;;;1.42;72.42;95078.94;4133769;28;20047;-80
2021/01/22 01:06:10;;;;;;;87.32;49.28;;;;;;;1.49;71.83;95067.28;4126691;28;20051;-80
2021/01/22 01:08:12;;;;;;;82.43;50.05;;;;;;;1.36;72.03;95056.06;4131824;28;20046;-80
2021/01/22 01:10:13;;;;;;;81.35;47.03;;;;;;;1.33;72.15;95059.66;4123779;28;20081;-81
2021/01/22 01:12:15;;;;;;;80.38;46.70;;;;;;;1.40;72.53;95039.47;4138451;28;20141;-83
2021/01/22 01:14:17;;;;;;;88.13;48.88;;;;;;;1.40;71.98;95042.06;4132963;28;20068;-81
2021/01/22 01:16:18;;;;;;;73.18;44.28;;;;;;;1.42;72.40;95042.78;4136850;28;20046;-81
2021/01/22 01:18:19;;;;;;;72.57;43.72;;;;;;;1.27;72.94;95054.03;4138902;28;20060;-81
2021/01/22 01:20:26;;;;;;;71.72;42.42;;;;;;;1.31;72.45;95050.34;4146710;28;20056;-82
2021/01/22 01:22:27;;;;;;;74.35;43.03;;;;;;;1.41;71.97;95048.84;4135221;28;21289;-81
2021/01/22 01:24:28;;;;;;;66.30;40.55;;;;;;;1.41;72.04;95046.28;4123101;28;20043;-81
2021/01/22 01:26:29;;;;;;;70.40;41.53;;;;;;;1.46;72.23;95061.47;4123174;28;20077;-81
2021/01/22 01:28:30;;;;;;;65.53;39.05;;;;;;;1.52;71.74;95043.84;4130793;28;20066;-70
2021/01/22 01:30:32;;;;;;;59.17;37.55;;;;;;;1.59;72.10;95031.38;4129181;28;20054;-70
2021/01/22 01:32:33;;;;;;;62.33;37.75;;;;;;;1.66;71.53;95039.56;4115042;28;20153;-70
2021/01/22 01:34:34;;;;;;;58.78;36.28;;;;;;;1.64;71.40;95040.50;4129866;28;20061;-70
2021/01/22 01:36:36;;;;;;;63.95;38.85;;;;;;;1.19;72.86;95015.81;4128131;28;20113;-72
2021/01/22 01:38:37;;;;;;;50.20;32.88;;;;;;;1.21;73.66;95043.19;4124695;28;20141;-70
2021/01/22 01:40:38;;;;;;;53.42;33.25;;;;;;;1.22;73.98;95026.75;4129319;28;20051;-70
2021/01/22 01:42:39;;;;;;;46.17;27.20;;;;;;;1.37;72.82;95034.47;4128434;28;20049;-70
2021/01/22 01:44:40;;;;;;;49.28;30.38;;;;;;;1.50;72.84;95030.22;4115683;28;20043;-70
2021/01/22 01:46:42;;;;;;;54.00;32.35;;;;;;;1.57;72.71;95025.47;4122716;28;20109;-71
2021/01/22 01:48:43;;;;;;;51.42;30.73;;;;;;;1.58;72.41;95032.31;4129555;28;20097;-71
2021/01/22 01:50:45;;;;;;;51.20;31.65;;;;;;;1.49;72.67;95032.91;4129780;28;20084;-70
2021/01/22 01:52:46;;;;;;;54.80;31.67;;;;;;;1.36;72.85;95020.75;4128994;28;20046;-70
2021/01/22 01:54:47;;;;;;;50.20;32.45;;;;;;;1.42;73.15;95025.53;4128238;28;20065;-70
2021/01/22 01:56:49;;;;;;;51.08;33.35;;;;;;;1.41;72.79;95010.13;4118575;28;20051;-70
2021/01/22 01:58:50;;;;;;;51.05;32.70;;;;;;;1.45;73.02;95013.38;4126418;28;20058;-70
2021/01/22 02:00:51;;;;;;;50.95;32.50;;;;;;;1.41;72.82;95017.88;4127229;28;20068;-70
2021/01/22 02:02:53;;;;;;;50.35;30.90;;;;;;;1.39;73.15;95017.16;4111157;28;20061;-70
2021/01/22 02:04:55;;;;;;;55.03;32.78;;;;;;;1.45;72.35;95019.34;4127197;28;20133;-71
2021/01/22 02:06:57;;;;;;;49.75;27.33;;;;;;;1.46;73.39;95008.09;4128676;28;20047;-70
2021/01/22 02:08:59;;;;;;;48.05;27.70;;;;;;;1.57;72.85;95016.00;4128820;28;20081;-70
2021/01/22 02:11:02;;;;;;;47.80;28.88;;;;;;;1.66;72.53;95012.00;4127579;28;20050;-70
2021/01/22 02:13:04;;;;;;;42.60;27.13;;;;;;;1.71;71.66;95012.53;4104823;28;20074;-71
2021/01/22 02:15:07;;;;;;;45.92;27.88;;;;;;;1.76;71.45;95020.81;4125679;28;20085;-70
2021/01/22 02:17:09;;;;;;;45.72;27.17;;;;;;;1.79;71.70;95010.31;4112594;28;20054;-69
2021/01/22 02:19:12;;;;;;;46.30;26.42;;;;;;;1.79;71.28;95022.41;4125159;28;20141;-70
2021/01/22 02:21:31;;;;;;;42.03;26.20;;;;;;;1.83;71.53;95005.78;4129000;28;20042;-71
2021/01/22 02:23:34;;;;;;;40.60;24.25;;;;;;;1.86;71.34;94997.81;4128166;28;20057;-71
2021/01/22 02:25:40;;;;;;;39.47;23.42;;;;;;;1.91;71.35;95007.84;4130293;28;20471;-82
2021/01/22 02:27:41;;;;;;;39.08;26.08;;;;;;;1.90;71.00;95004.44;4117598;28;20059;-81
2021/01/22 02:29:44;;;;;;;40.60;24.25;;;;;;;1.91;71.04;94995.75;4130969;28;20119;-78
2021/01/22 02:31:45;;;;;;;40.58;25.05;;;;;;;1.91;71.17;94990.59;4116031;28;20633;-70
2021/01/22 02:33:48;;;;;;;40.83;25.88;;;;;;;1.79;71.40;95004.31;4127675;28;20057;-70
2021/01/22 02:35:54;;;;;;;42.53;24.90;;;;;;;1.23;72.97;95007.78;4128034;28;20061;-70
2021/01/22 02:37:56;;;;;;;40.35;26.35;;;;;;;0.61;75.16;95008.09;4127144;28;20058;-70
2021/01/22 02:39:57;;;;;;;38.67;25.48;;;;;;;0.63;75.49;95002.84;4122164;28;20053;-70
2021/01/22 02:42:02;;;;;;;36.42;23.60;;;;;;;0.69;75.54;95009.38;4125811;28;20058;-71
2021/01/22 02:44:04;;;;;;;38.78;23.70;;;;;;;0.86;74.98;94995.47;4124623;28;20050;-70
2021/01/22 02:46:06;;;;;;;34.83;23.25;;;;;;;0.96;74.56;94991.41;4125771;28;20058;-71
2021/01/22 02:48:08;;;;;;;42.22;24.27;;;;;;;1.03;74.50;95010.75;4127652;28;20050;-70
2021/01/22 02:50:10;;;;;;;40.88;24.75;;;;;;;1.12;74.28;94999.88;4098399;28;20051;-71
2021/01/22 02:52:12;;;;;;;41.97;25.20;;;;;;;0.95;75.25;94987.19;4122456;28;20050;-70
2021/01/22 02:54:13;;;;;;;43.20;26.02;;;;;;;1.10;74.68;94995.72;4127631;28;20293;-69
2021/01/22 02:56:29;;;;;;;44.72;25.17;;;;;;;1.26;74.30;94995.59;4112721;28;20105;-71
2021/01/22 02:59:00;;;;;;;45.13;25.73;;;;;;;1.38;73.14;95000.84;4120568;28;20054;-70
2021/01/22 03:01:05;;;;;;;45.88;25.75;;;;;;;1.48;72.61;94989.94;4112808;28;20096;-70
2021/01/22 03:03:31;;;;;;;42.80;26.20;;;;;;;1.52;72.52;94996.56;4128834;28;20078;-70
2021/01/22 03:05:35;;;;;;;38.13;24.65;;;;;;;1.34;73.06;95014.03;4132008;28;20046;-71
2021/01/22 03:07:46;;;;;;;39.05;23.80;;;;;;;1.38;72.88;95012.94;4130277;28;20050;-71
2021/01/22 03:09:47;;;;;;;37.63;23.33;;;;;;;1.43;73.31;94998.78;4130755;28;20484;-69
2021/01/22 03:11:51;;;;;;;34.53;22.73;;;;;;;1.49;72.89;94997.59;4129681;28;20057;-70
2021/01/22 03:13:53;;;;;;;37.35;23.35;;;;;;;1.58;71.97;95001.34;4138813;28;20432;-70
2021/01/22 03:15:54;;;;;;;36.88;23.15;;;;;;;1.55;72.69;94997.19;4117519;28;20055;-70
2021/01/22 03:18:09;;;;;;;33.10;21.85;;;;;;;1.59;72.79;94996.09;4119881;28;20057;-71
2021/01/22 03:20:15;;;;;;;38.92;23.60;;;;;;;1.64;72.09;94995.78;4129980;28;20114;-70
2021/01/22 03:22:17;;;;;;;37.60;24.02;;;;;;;1.64;72.04;94985.47;4129798;28;20046;-70
2021/01/22 03:24:18;;;;;;;38.13;24.13;;;;;;;1.64;72.12;94996.59;4131830;28;20046;-70
2021/01/22 03:26:19;;;;;;;35.92;22.77;;;;;;;1.49;72.64;95002.75;4128762;28;20132;-70
2021/01/22 03:28:20;;;;;;;35.28;22.77;;;;;;;1.37;72.76;95006.91;4130601;28;20499;-71
2021/01/22 03:30:22;;;;;;;37.22;23.85;;;;;;;1.41;73.07;95007.56;4129766;28;20054;-70
2021/01/22 03:32:23;;;;;;;35.42;22.20;;;;;;;1.30;73.47;95010.00;4127669;28;20046;-69
2021/01/22 03:34:28;;;;;;;39.58;23.83;;;;;;;1.21;73.70;95014.78;4131742;28;20105;-71
2021/01/22 03:36:29;;;;;;;34.15;23.55;;;;;;;1.23;73.37;95018.09;4122864;28;20057;-70
2021/01/22 03:38:31;;;;;;;38.90;23.35;;;;;;;1.25;73.85;94999.94;4133700;28;20049;-71
2021/01/22 03:40:32;;;;;;;39.92;25.13;;;;;;;1.12;74.19;95004.19;4130717;28;20076;-71
2021/01/22 03:42:33;;;;;;;40.15;24.75;;;;;;;1.12;73.95;94997.31;4114575;28;20057;-70
2021/01/22 03:44:36;;;;;;;38.30;23.83;;;;;;;1.11;74.33;94990.47;4108714;28;20488;-70
2021/01/22 03:46:38;;;;;;;43.20;25.98;;;;;;;1.26;74.36;94995.59;4120928;28;20058;-70
2021/01/22 03:48:39;;;;;;;38.70;24.48;;;;;;;1.34;73.25;95011.44;4131015;28;20153;-70
2021/01/22 03:50:40;;;;;;;36.35;23.92;;;;;;;1.44;72.87;95004.78;4130850;28;20214;-70
2021/01/22 03:52:42;;;;;;;37.08;24.55;;;;;;;1.52;72.94;95002.53;4116379;28;20057;-69
2021/01/22 03:54:46;;;;;;;35.67;24.63;;;;;;;1.59;72.53;94997.81;4131006;28;20050;-71
2021/01/22 03:56:47;;;;;;;35.90;23.00;;;;;;;1.61;72.50;94996.81;4124237;28;20500;-71
2021/01/22 03:58:48;;;;;;;35.15;23.67;;;;;;;1.67;71.88;94995.56;4124101;28;20150;-71
2021/01/22 04:00:49;;;;;;;42.67;27.52;;;;;;;1.64;72.10;94999.19;4117942;28;20058;-71
2021/01/22 04:02:51;;;;;;;40.67;26.80;;;;;;;1.61;72.22;94995.97;4129328;28;20058;-70
2021/01/22 04:04:52;;;;;;;42.00;27.17;;;;;;;1.61;72.33;94999.41;4131514;28;20136;-71
2021/01/22 04:06:53;;;;;;;40.20;25.13;;;;;;;1.57;72.35;95004.81;4130995;28;20061;-71
2021/01/22 04:08:54;;;;;;;42.70;25.73;;;;;;;1.58;72.61;94999.56;4131375;28;20141;-70
2021/01/22 04:10:55;;;;;;;41.40;25.67;;;;;;;1.60;72.54;95005.47;4129655;28;20054;-70
2021/01/22 04:12:57;;;;;;;36.50;23.90;;;;;;;1.58;72.23;95007.31;4133297;28;20054;-70
2021/01/22 04:14:58;;;;;;;37.55;24.90;;;;;;;1.60;72.60;95000.31;4120530;28;20055;-70
2021/01/22 04:16:59;;;;;;;36.03;25.23;;;;;;;1.56;72.54;95001.44;4123534;28;20125;-69
2021/01/22 04:19:02;;;;;;;38.25;25.63;;;;;;;1.57;72.39;95010.84;4128575;28;20129;-70
2021/01/22 04:21:03;;;;;;;43.13;24.70;;;;;;;1.59;72.38;95015.88;4123608;28;20052;-70
2021/01/22 04:23:04;;;;;;;40.60;25.17;;;;;;;1.53;72.48;95019.72;4130293;28;20050;-70
2021/01/22 04:25:06;;;;;;;43.10;24.90;;;;;;;1.48;73.06;95016.56;4130299;28;20054;-70
2021/01/22 04:27:07;;;;;;;37.45;24.45;;;;;;;1.23;74.05;95007.78;4131268;28;20057;-71
2021/01/22 04:29:09;;;;;;;42.65;23.92;;;;;;;1.31;74.03;95003.88;4127902;28;20408;-70
2021/01/22 04:31:10;;;;;;;34.28;22.67;;;;;;;1.39;73.40;94996.50;4116265;28;20385;-70
2021/01/22 04:33:12;;;;;;;37.03;23.52;;;;;;;1.41;73.02;94987.72;4122590;28;20081;-71
2021/01/22 04:35:14;;;;;;;36.42;23.60;;;;;;;1.45;73.41;94995.28;4119180;28;20473;-70
2021/01/22 04:37:15;;;;;;;35.83;23.55;;;;;;;1.25;74.22;95004.25;4127851;28;20054;-71
2021/01/22 04:39:16;;;;;;;35.78;23.55;;;;;;;1.21;74.21;95007.03;4129725;28;20066;-71
2021/01/22 04:41:18;;;;;;;39.13;23.55;;;;;;;1.26;73.97;95006.75;4130807;28;20416;-70
2021/01/22 04:43:19;;;;;;;41.10;24.10;;;;;;;1.27;74.18;94987.78;4129121;28;20054;-70
2021/01/22 04:45:20;;;;;;;33.90;23.15;;;;;;;1.29;73.92;94979.91;4128701;28;20492;-70
2021/01/22 04:47:21;;;;;;;35.03;22.70;;;;;;;1.32;74.09;94985.72;4129548;28;20129;-73
2021/01/22 04:49:24;;;;;;;38.38;22.63;;;;;;;1.33;74.05;94981.38;4129358;28;20093;-71
2021/01/22 04:51:25;;;;;;;35.80;21.65;;;;;;;1.28;74.79;94988.59;4129118;28;20058;-70
2021/01/22 04:53:27;;;;;;;34.30;21.77;;;;;;;1.27;74.53;95003.25;4129914;28;20050;-70
2021/01/22 04:55:29;;;;;;;36.03;21.30;;;;;;;1.35;74.61;94990.69;4128287;28;20137;-70
2021/01/22 04:57:31;;;;;;;37.15;22.67;;;;;;;1.31;74.48;94984.09;4129171;28;20128;-69
2021/01/22 04:59:45;;;;;;;36.67;22.05;;;;;;;1.25;75.21;94983.63;4128532;28;20489;-70
2021/01/22 05:01:48;;;;;;;33.65;21.00;;;;;;;1.26;74.69;94998.19;4127030;28;20057;-69
2021/01/22 05:03:49;;;;;;;37.15;20.50;;;;;;;1.34;74.58;94998.56;4130033;28;20045;-70
2021/01/22 05:05:56;;;;;;;;;;;;;;;1.46;73.94;94996.94;4129044;28;20494;-71
2021/01/22 05:07:58;;;;;;;42.65;24.88;;;;;;;1.51;73.88;94992.34;4128237;28;19932;-70
2021/01/22 05:09:59;;;;;;;37.42;22.70;;;;;;;1.53;73.49;94986.13;4129977;28;20108;-69
2021/01/22 05:12:02;;;;;;;37.28;23.20;;;;;;;1.57;73.98;94992.78;4112506;28;20057;-70
2021/01/22 05:14:04;;;;;;;36.53;23.80;;;;;;;1.60;73.51;94989.16;4115827;28;20050;-72
2021/01/22 05:16:12;;;;;;;38.17;22.75;;;;;;;1.44;74.20;94978.94;4123448;28;20128;-71
2021/01/22 05:18:15;;;;;;;41.55;23.65;;;;;;;1.44;74.52;94986.69;4122706;28;20137;-71
2021/01/22 05:20:32;;;;;;;74.10;41.67;;;;;;;1.45;75.54;94993.53;4128774;28;20053;-71
2021/01/22 05:22:35;;;;;;;43.95;26.08;;;;;;;1.53;75.18;94999.06;4128505;28;20050;-71
2021/01/22 05:24:36;;;;;;;38.97;24.13;;;;;;;1.56;74.08;94991.09;4127688;28;20084;-71
2021/01/22 05:26:38;;;;;;;44.63;28.45;;;;;;;1.58;73.87;94989.25;4120128;28;20046;-70
2021/01/22 05:28:44;;;;;;;43.97;26.88;;;;;;;1.66;74.10;94985.34;4129679;28;20042;-70
2021/01/22 05:30:55;;;;;;;37.90;25.60;;;;;;;1.69;73.36;94990.31;4125122;28;20134;-70
2021/01/22 05:33:14;;;;;;;39.50;24.63;;;;;;;1.71;73.25;94991.88;4117317;28;20112;-71
2021/01/22 05:35:29;;;;;;;39.15;25.77;;;;;;;1.70;73.17;94986.81;4130019;28;20058;-70
2021/01/22 05:37:31;;;;;;;43.30;26.10;;;;;;;1.68;73.19;94978.31;4129625;28;20054;-70
2021/01/22 05:39:32;;;;;;;41.50;26.13;;;;;;;1.57;73.42;94974.69;4127356;28;20058;-70
2021/01/22 05:41:33;;;;;;;46.50;27.98;;;;;;;1.41;74.45;94976.56;4129865;28;20129;-70
2021/01/22 05:43:36;;;;;;;46.35;29.33;;;;;;;1.44;74.64;94989.28;4128445;28;20046;-84
2021/01/22 05:45:43;;;;;;;41.85;26.65;;;;;;;1.50;74.35;94983.72;4133255;28;20046;-81
2021/01/22 05:47:44;;;;;;;40.92;26.52;;;;;;;1.56;74.07;94985.94;4120757;28;20050;-81
2021/01/22 05:49:54;;;;;;;40.97;23.95;;;;;;;1.60;73.79;94978.81;4129848;28;20066;-82
2021/01/22 05:51:55;;;;;;;41.60;25.13;;;;;;;1.36;74.43;94973.47;4121268;28;20054;-83
2021/01/22 05:53:56;;;;;;;37.75;24.00;;;;;;;1.31;74.72;94981.50;4132156;28;20129;-82
2021/01/22 05:56:09;;;;;;;39.10;24.92;;;;;;;1.34;74.43;94978.72;4124514;28;20055;-82
2021/01/22 05:58:10;;;;;;;42.13;25.73;;;;;;;1.41;74.46;94974.00;4118264;28;20046;-85
2021/01/22 06:00:13;;;;;;;41.00;27.02;;;;;;;1.28;74.92;94970.53;4126304;28;20137;-83
2021/01/22 06:02:33;;;;;;;41.65;25.65;;;;;;;1.36;74.67;94981.22;4134369;28;20583;-83
2021/01/22 06:04:34;;;;;;;39.13;24.48;;;;;;;1.28;75.32;94970.53;4117521;28;20463;-83
2021/01/22 06:06:36;;;;;;;39.80;24.95;;;;;;;1.31;75.04;94980.66;4121909;28;20050;-84
2021/01/22 06:08:54;;;;;;;41.60;25.35;;;;;;;1.42;74.99;94984.25;4126638;28;20131;-84
2021/01/22 06:10:56;;;;;;;36.15;21.55;;;;;;;1.45;75.08;94974.63;4130920;28;20085;-84
2021/01/22 06:13:01;;;;;;;39.58;26.17;;;;;;;1.45;75.17;94972.06;4141044;28;20064;-84
2021/01/22 06:15:02;;;;;;;40.42;24.95;;;;;;;1.54;74.74;94974.88;4119850;28;20082;-82
2021/01/22 06:17:06;;;;;;;38.17;25.48;;;;;;;1.35;75.26;94970.03;4131914;28;20054;-82
2021/01/22 06:19:08;;;;;;;41.33;28.38;;;;;;;1.40;75.20;94978.34;4121232;28;20058;-83
2021/01/22 06:21:14;;;;;;;43.92;26.55;;;;;;;1.50;74.65;94978.56;4133479;28;20562;-82
2021/01/22 06:23:15;;;;;;;40.75;26.33;;;;;;;1.41;75.72;94969.66;4126576;28;20047;-82
2021/01/22 06:25:17;;;;;;;34.40;25.23;;;;;;;1.40;75.63;94977.53;4140423;28;20049;-85
2021/01/22 06:27:19;;;;;;;38.15;26.15;;;;;;;1.52;75.64;94970.72;4121371;28;20141;-83
2021/01/22 06:29:20;;;;;;;40.63;25.30;;;;;;;1.62;75.33;94964.88;4132699;28;20054;-82
2021/01/22 06:31:21;;;;;;;40.05;25.98;;;;;;;1.75;74.83;94969.28;4143618;28;20046;-82
2021/01/22 06:33:23;;;;;;;49.63;26.08;;;;;;;1.85;74.61;94970.34;4130665;28;20051;-83
2021/01/22 06:35:29;;;;;;;41.88;26.08;;;;;;;1.88;73.91;94974.47;4133976;28;20050;-83
2021/01/22 06:37:31;;;;;;;44.83;25.92;;;;;;;1.92;74.33;94986.28;4135407;28;20588;-82
2021/01/22 06:39:32;;;;;;;44.47;26.30;;;;;;;1.70;74.66;94950.63;4131262;28;20042;-83
2021/01/22 06:41:34;;;;;;;41.33;26.48;;;;;;;1.76;74.97;94981.25;4126443;28;20056;-82
2021/01/22 06:43:37;;;;;;;43.35;25.48;;;;;;;1.91;74.58;94966.50;4129504;28;20046;-83
2021/01/22 06:45:38;;;;;;;51.58;32.08;;;;;;;2.06;74.36;94957.75;4131982;28;20061;-83
2021/01/22 06:47:39;;;;;;;56.03;33.65;;;;;;;2.24;73.90;94969.47;4134713;28;20111;-84
2021/01/22 06:49:41;;;;;;;36.80;25.15;;;;;;;2.33;73.31;94973.19;4134399;28;20077;-83
2021/01/22 06:51:42;;;;;;;41.45;26.88;;;;;;;2.33;73.52;94955.09;4132733;28;20078;-84
2021/01/22 06:54:20;;;;;;;45.08;27.10;;;;;;;2.36;73.76;94961.81;4134849;28;20051;-85
2021/01/22 06:56:21;;;;;;;41.60;25.20;;;;;;;2.41;73.39;94963.19;4108312;28;20112;-85
2021/01/22 06:58:26;;;;;;;42.10;26.65;;;;;;;2.28;74.12;94940.81;4127167;28;20145;-86
2021/01/22 07:00:37;;;;;;;39.25;26.40;;;;;;;2.36;73.65;94952.28;4114682;28;20579;-85
2021/01/22 07:02:40;;;;;;;46.38;25.73;;;;;;;2.41;73.70;94949.41;4132450;28;20046;-84
2021/01/22 07:04:42;;;;;;;44.63;26.07;;;;;;;2.39;73.53;94946.94;4129706;28;20124;-82
2021/01/22 07:06:48;;;;;;;39.00;26.13;;;;;;;2.38;73.25;94953.03;4132186;28;20054;-84
2021/01/22 07:08:49;;;;;;;41.33;26.10;;;;;;;2.36;73.34;94943.72;4130321;28;20050;-82
2021/01/22 07:11:02;;;;;;;41.67;26.60;;;;;;;2.48;73.28;94949.84;4132122;28;20062;-83
2021/01/22 07:13:05;;;;;;;38.47;25.73;;;;;;;2.60;73.43;94948.97;4131094;28;20163;-85
2021/01/22 07:15:22;;;;;;;42.80;26.50;;;;;;;2.58;73.55;94956.03;4131451;28;20057;-85
2021/01/22 07:17:33;;;;;;;39.38;24.17;;;;;;;2.50;73.57;94953.16;4132338;28;20054;-84
2021/01/22 07:19:35;;;;;;;42.38;26.85;;;;;;;2.41;73.32;94955.41;4131815;28;20125;-85
2021/01/22 07:21:41;;;;;;;43.42;26.70;;;;;;;2.19;74.11;94950.84;4123000;28;20128;-85
2021/01/22 07:23:42;;;;;;;44.47;29.30;;;;;;;2.30;73.81;94952.69;4126207;28;20161;-83
2021/01/22 07:25:45;;;;;;;51.33;33.05;;;;;;;2.39;73.43;94962.44;4117279;28;20050;-71
2021/01/22 07:27:46;;;;;;;55.15;34.08;;;;;;;2.48;73.36;94971.34;4128333;28;20046;-72
2021/01/22 07:30:07;;;;;;;51.70;34.50;;;;;;;2.55;73.16;94975.16;4126889;28;20550;-72
2021/01/22 07:32:11;;;;;;;52.72;34.58;;;;;;;2.45;72.59;94967.22;4126495;28;20042;-74
2021/01/22 07:35:01;;;;;;;55.85;34.78;;;;;;;2.55;72.21;94966.59;4128244;28;20125;-72
2021/01/22 07:37:04;;;;;;;58.35;35.63;;;;;;;2.63;72.54;94970.31;4123752;28;20082;-73
2021/01/22 07:39:06;;;;;;;65.65;38.28;;;;;;;2.72;72.82;94950.75;4127679;28;20507;-72
2021/01/22 07:41:08;;;;;;;69.78;43.22;;;;;;;2.81;73.66;94952.69;4122413;28;20053;-71
2021/01/22 07:43:13;;;;;;;57.30;37.50;;;;;;;2.94;72.48;94965.59;4112636;28;20118;-72
2021/01/22 07:45:16;;;;;;;56.10;35.35;;;;;;;2.99;71.50;94950.59;4114255;28;20483;-74
2021/01/22 07:47:24;;;;;;;65.55;38.47;;;;;;;3.05;71.16;94973.47;4127255;28;20050;-70
2021/01/22 07:49:26;;;;;;;67.65;39.97;;;;;;;3.06;71.06;94964.75;4118425;28;20061;-71
2021/01/22 07:51:39;;;;;;;66.13;42.85;;;;;;;2.71;71.78;94938.75;4129453;28;20042;-71
2021/01/22 07:53:41;;;;;;;69.93;42.47;;;;;;;2.82;71.89;94964.72;4120589;28;20094;-72
2021/01/22 07:55:44;;;;;;;73.50;43.97;;;;;;;2.93;71.83;94955.38;4108626;28;20553;-73
2021/01/22 07:58:03;;;;;;;66.13;41.13;;;;;;;2.56;73.15;94937.19;4131093;28;20069;-83
2021/01/22 08:00:06;;;;;;;63.60;40.05;;;;;;;2.74;72.79;94946.28;4134797;28;20082;-84
2021/01/22 08:02:18;;;;;;;63.65;35.22;;;;;;;2.86;72.50;94945.47;4132637;28;20046;-84
2021/01/22 08:04:26;;;;;;;60.63;38.83;;;;;;;2.86;72.38;94929.94;4137418;28;20084;-84
2021/01/22 08:06:27;;;;;;;58.53;37.15;;;;;;;2.96;71.99;94944.81;4117896;28;20504;-84
2021/01/22 08:08:28;;;;;;;58.47;36.80;;;;;;;3.01;72.55;94938.38;4123809;28;20057;-86
2021/01/22 08:10:31;;;;;;;62.17;38.30;;;;;;;3.10;71.96;94939.50;4133492;28;20046;-85
2021/01/22 08:12:32;;;;;;;70.50;41.60;;;;;;;3.19;71.45;94945.78;4133055;28;20064;-83
2021/01/22 08:14:34;;;;;;;68.82;40.80;;;;;;;3.25;71.57;94930.66;4139231;28;20400;-83
2021/01/22 08:16:37;;;;;;;63.00;41.88;;;;;;;3.22;71.46;94945.56;4131538;28;20059;-84
2021/01/22 08:18:44;;;;;;;61.87;38.20;;;;;;;3.32;71.13;94954.34;4118197;28;20063;-83
2021/01/22 08:20:51;;;;;;;59.88;36.20;;;;;;;3.01;72.14;94924.59;4146162;28;20054;-84
2021/01/22 08:22:56;;;;;;;59.22;38.85;;;;;;;3.01;72.24;94951.31;4123137;28;20105;-86
2021/01/22 08:24:57;;;;;;;55.92;36.83;;;;;;;3.17;71.93;94932.94;4141462;28;20050;-87
2021/01/22 08:27:04;;;;;;;61.97;37.67;;;;;;;3.20;71.88;94944.84;4138034;28;20053;-83
2021/01/22 08:29:09;;;;;;;55.75;34.80;;;;;;;3.32;71.44;94951.75;4130886;28;20130;-73
2021/01/22 08:31:13;;;;;;;58.22;35.75;;;;;;;3.26;71.29;94924.53;4127067;28;20475;-72
2021/01/22 08:33:14;;;;;;;59.40;35.17;;;;;;;3.25;71.66;94933.25;4130205;28;20050;-73
2021/01/22 08:35:16;;;;;;;49.17;33.53;;;;;;;3.40;71.50;94936.50;4130284;28;20046;-72
2021/01/22 08:37:25;;;;;;;57.55;36.63;;;;;;;3.44;71.21;94929.31;4117155;28;20061;-74
2021/01/22 08:39:26;;;;;;;54.30;34.22;;;;;;;3.61;70.70;94961.78;4119553;28;20134;-71
2021/01/22 08:41:28;;;;;;;42.72;25.42;;;;;;;3.55;70.61;94916.44;4123269;28;20543;-72
2021/01/22 08:43:29;;;;;;;42.75;26.90;;;;;;;3.41;71.25;94896.69;4122129;28;20181;-73
2021/01/22 08:46:12;;;;;;;43.67;26.83;;;;;;;3.67;71.01;94941.44;4127861;28;20057;-74
2021/01/22 08:48:13;;;;;;;37.35;26.20;;;;;;;3.71;69.88;94910.16;4123968;28;20448;-73
2021/01/22 08:50:18;;;;;;;40.03;25.90;;;;;;;3.71;69.69;94928.28;4122220;28;20046;-74
2021/01/22 08:52:19;;;;;;;39.60;25.73;;;;;;;3.87;69.61;94931.38;4129875;28;20058;-71
2021/01/22 08:54:20;;;;;;;37.95;25.73;;;;;;;4.01;69.69;94915.66;4128036;28;20061;-71
2021/01/22 08:56:22;;;;;;;40.22;25.33;;;;;;;4.13;68.88;94903.56;4129299;28;20490;-73
2021/01/22 08:58:23;;;;;;;39.88;26.58;;;;;;;4.17;69.44;94898.94;4129666;28;20499;-70
2021/01/22 09:00:25;;;;;;;36.10;24.00;;;;;;;4.22;68.70;94900.28;4129327;28;20050;-71
2021/01/22 09:02:36;;;;;;;36.08;23.08;;;;;;;4.34;67.89;94916.66;4132276;28;20569;-82
2021/01/22 09:04:37;;;;;;;35.10;23.70;;;;;;;4.38;67.61;94910.31;4140628;28;20130;-86
2021/01/22 09:06:46;;;;;;;39.38;25.00;;;;;;;4.37;67.75;94910.44;4119089;28;20047;-84
2021/01/22 09:08:54;;;;;;;41.90;26.45;;;;;;;4.48;68.56;94913.03;4127406;28;20050;-73
2021/01/22 09:10:55;;;;;;;38.75;23.08;;;;;;;4.63;67.71;94911.88;4127821;28;20150;-72
2021/01/22 09:13:17;;;;;;;39.97;23.40;;;;;;;4.74;66.67;94905.84;4136681;28;20058;-72
2021/01/22 09:15:19;;;;;;;44.17;26.55;;;;;;;4.84;66.86;94909.38;4130808;28;20050;-71
2021/01/22 09:17:20;;;;;;;34.35;24.25;;;;;;;4.92;66.16;94901.81;4137138;28;20216;-73
2021/01/22 09:19:22;;;;;;;31.92;22.13;;;;;;;4.99;66.20;94893.53;4128781;28;20461;-71
2021/01/22 09:21:23;;;;;;;29.33;20.63;;;;;;;5.06;65.62;94894.72;4122338;28;20116;-72
2021/01/22 09:23:24;;;;;;;38.08;24.42;;;;;;;5.12;66.05;94895.06;4136903;28;20069;-76
2021/01/22 09:25:26;;;;;;;36.38;21.75;;;;;;;5.20;65.26;94893.63;4127444;28;20137;-71
2021/01/22 09:27:27;;;;;;;30.75;19.73;;;;;;;5.21;65.38;94897.91;4128930;28;20097;-72
2021/01/22 09:29:28;;;;;;;32.45;21.58;;;;;;;5.20;65.10;94876.25;4137377;28;20046;-75
2021/01/22 09:31:30;;;;;;;31.05;20.05;;;;;;;5.10;64.94;94881.38;4126495;28;20061;-74
2021/01/22 09:33:31;;;;;;;29.73;19.58;;;;;;;5.21;65.59;94883.13;4133426;28;20526;-72
2021/01/22 09:35:32;;;;;;;31.02;18.63;;;;;;;5.18;65.53;94848.78;4128024;28;20050;-72